M/V Wayne T Mosley — WDF2092 — position and weather

sailwx.info

Track history (hours):
 
Tides and Currents Weather Stations Pressure Air Temp Water Temp Dewpoint Dewpoint Depression Visibility Wind Speed Wind Dir Waves Ship Positions

M/V Wayne T Mosley

Owner: Blessey Enterprises Inc., Harahan, LA. More information available from US FCC via Universal Licensing System and Coast Guard Vessel Documentation Center.

Last reported at 2018-Jan-24 05:29 UTC. Time now 2018-Jan-24 05:51 UTC.
Position N 27°50' W 097°30'.

Length 25 m; draft 3 m.

Type: Towing. MMSI: 367424750.

Date/timePositionNaut miles runAvg speedWind from/ knotsBaromVisibWave heightAir tempDewpointWater temp
2018-Jan-24 05:29N 27°50' W 097°30'0 0.1
2018-Jan-24 04:53N 27°50' W 097°30'0 0.4
2018-Jan-24 04:30N 27°50' W 097°30'2 3.2
2018-Jan-24 03:54N 27°49' W 097°28'2 5.1
2018-Jan-24 03:26N 27°49' W 097°25'0 0.0
2018-Jan-24 00:28N 27°49' W 097°25'0 0.0
2018-Jan-23 23:59N 27°49' W 097°25'0 0.0
2018-Jan-23 23:17N 27°49' W 097°25'0 0.0
2018-Jan-23 23:00N 27°49' W 097°25'0 0.0
2018-Jan-23 22:29N 27°49' W 097°25'0 0.0
2018-Jan-23 21:59N 27°49' W 097°25'0 0.0
2018-Jan-23 21:29N 27°49' W 097°25'0 0.0
2018-Jan-23 20:59N 27°49' W 097°25'0 0.0
2018-Jan-23 20:29N 27°49' W 097°25'0 0.0
2018-Jan-23 19:59N 27°49' W 097°25'0 0.0
2018-Jan-23 19:30N 27°49' W 097°25'0 0.0
2018-Jan-23 18:57N 27°49' W 097°25'0 0.0
2018-Jan-23 18:30N 27°49' W 097°25'0 0.0
2018-Jan-23 17:59N 27°49' W 097°25'0 0.0
2018-Jan-23 17:30N 27°49' W 097°25'0 0.0
2018-Jan-23 17:00N 27°49' W 097°25'0 0.0
2018-Jan-23 16:29N 27°49' W 097°25'0 0.0
2018-Jan-23 15:59N 27°49' W 097°25'0 0.0
2018-Jan-23 15:30N 27°49' W 097°25'0 0.0
2018-Jan-23 15:00N 27°49' W 097°25'0 0.0
2018-Jan-23 14:29N 27°49' W 097°25'4 7.2
2018-Jan-23 13:59N 27°49' W 097°29'1 1.2
2018-Jan-23 13:29N 27°50' W 097°30'0 0.0
2018-Jan-23 13:00N 27°50' W 097°30'0 0.0
2018-Jan-23 12:29N 27°50' W 097°30'0 0.0
2018-Jan-23 12:00N 27°50' W 097°30'0 0.0
2018-Jan-23 11:30N 27°50' W 097°30'0 0.0
2018-Jan-23 11:00N 27°50' W 097°30'0 0.0
2018-Jan-23 10:28N 27°50' W 097°30'0 0.0
2018-Jan-23 10:00N 27°50' W 097°30'0 0.0
2018-Jan-23 09:30N 27°50' W 097°30'0 0.0
2018-Jan-23 08:20N 27°50' W 097°30'0 0.0
2018-Jan-23 08:00N 27°50' W 097°30'0 0.0
2018-Jan-23 05:14N 27°50' W 097°30'0 0.0
2018-Jan-23 05:00N 27°50' W 097°30'0 0.0
2018-Jan-23 04:26N 27°50' W 097°30'0 0.0
2018-Jan-23 03:59N 27°50' W 097°30'0 0.0
2018-Jan-23 03:27N 27°50' W 097°30'0 0.0
2018-Jan-23 02:43N 27°50' W 097°30'0 0.0
2018-Jan-23 02:05N 27°50' W 097°30'3 0.5
2018-Jan-22 20:06N 27°49' W 097°26'0 0.0
2018-Jan-22 19:58N 27°49' W 097°26'0 0.6
2018-Jan-22 19:30N 27°49' W 097°26'1 2.6
2018-Jan-22 18:57N 27°49' W 097°28'2 3.4
2018-Jan-22 18:29N 27°50' W 097°30'0 0.0
2018-Jan-22 18:00N 27°50' W 097°30'0 0.0
2018-Jan-22 17:20N 27°50' W 097°30'0 0.0
2018-Jan-22 16:57N 27°50' W 097°30'0 0.0
2018-Jan-22 16:29N 27°50' W 097°30'0 0.0
2018-Jan-22 16:00N 27°50' W 097°30'0 0.0
2018-Jan-22 15:29N 27°50' W 097°30'0 0.0
2018-Jan-22 15:00N 27°50' W 097°30'0 0.0
2018-Jan-22 14:29N 27°50' W 097°30'0 0.0
2018-Jan-22 14:00N 27°50' W 097°30'0 0.0
2018-Jan-22 13:29N 27°50' W 097°30'0 0.0
2018-Jan-22 13:00N 27°50' W 097°30'0 0.0
2018-Jan-22 12:29N 27°50' W 097°30'0 0.0
2018-Jan-22 12:00N 27°50' W 097°30'0 0.0
2018-Jan-22 11:29N 27°50' W 097°30'  
Track history (hours):
 
Tides and Currents Weather Stations Pressure Air Temp Water Temp Dewpoint Dewpoint Depression Visibility Wind Speed Wind Dir Waves Ship Positions

M/V Wayne T Mosley

Owner: Blessey Enterprises Inc., Harahan, LA. More information available from US FCC via Universal Licensing System and Coast Guard Vessel Documentation Center.

Last reported at 2018-Jan-24 05:29 UTC. Time now 2018-Jan-24 05:51 UTC.
Position N 27°50' W 097°30'.

Length 25 m; draft 3 m.

Type: Towing. MMSI: 367424750.

Date/timePositionNaut miles runAvg speedWind from/ knotsBaromVisibWave heightAir tempDewpointWater temp
2018-Jan-24 05:29N 27°50' W 097°30'0 0.1
2018-Jan-24 04:53N 27°50' W 097°30'0 0.4
2018-Jan-24 04:30N 27°50' W 097°30'2 3.2
2018-Jan-24 03:54N 27°49' W 097°28'2 5.1
2018-Jan-24 03:26N 27°49' W 097°25'0 0.0
2018-Jan-24 00:28N 27°49' W 097°25'0 0.0
2018-Jan-23 23:59N 27°49' W 097°25'0 0.0
2018-Jan-23 23:17N 27°49' W 097°25'0 0.0
2018-Jan-23 23:00N 27°49' W 097°25'0 0.0
2018-Jan-23 22:29N 27°49' W 097°25'0 0.0
2018-Jan-23 21:59N 27°49' W 097°25'0 0.0
2018-Jan-23 21:29N 27°49' W 097°25'0 0.0
2018-Jan-23 20:59N 27°49' W 097°25'0 0.0
2018-Jan-23 20:29N 27°49' W 097°25'0 0.0
2018-Jan-23 19:59N 27°49' W 097°25'0 0.0
2018-Jan-23 19:30N 27°49' W 097°25'0 0.0
2018-Jan-23 18:57N 27°49' W 097°25'0 0.0
2018-Jan-23 18:30N 27°49' W 097°25'0 0.0
2018-Jan-23 17:59N 27°49' W 097°25'0 0.0
2018-Jan-23 17:30N 27°49' W 097°25'0 0.0
2018-Jan-23 17:00N 27°49' W 097°25'0 0.0
2018-Jan-23 16:29N 27°49' W 097°25'0 0.0
2018-Jan-23 15:59N 27°49' W 097°25'0 0.0
2018-Jan-23 15:30N 27°49' W 097°25'0 0.0
2018-Jan-23 15:00N 27°49' W 097°25'0 0.0
2018-Jan-23 14:29N 27°49' W 097°25'4 7.2
2018-Jan-23 13:59N 27°49' W 097°29'1 1.2
2018-Jan-23 13:29N 27°50' W 097°30'0 0.0
2018-Jan-23 13:00N 27°50' W 097°30'0 0.0
2018-Jan-23 12:29N 27°50' W 097°30'0 0.0
2018-Jan-23 12:00N 27°50' W 097°30'0 0.0
2018-Jan-23 11:30N 27°50' W 097°30'0 0.0
2018-Jan-23 11:00N 27°50' W 097°30'0 0.0
2018-Jan-23 10:28N 27°50' W 097°30'0 0.0
2018-Jan-23 10:00N 27°50' W 097°30'0 0.0
2018-Jan-23 09:30N 27°50' W 097°30'0 0.0
2018-Jan-23 08:20N 27°50' W 097°30'0 0.0
2018-Jan-23 08:00N 27°50' W 097°30'0 0.0
2018-Jan-23 05:14N 27°50' W 097°30'0 0.0
2018-Jan-23 05:00N 27°50' W 097°30'0 0.0
2018-Jan-23 04:26N 27°50' W 097°30'0 0.0
2018-Jan-23 03:59N 27°50' W 097°30'0 0.0
2018-Jan-23 03:27N 27°50' W 097°30'0 0.0
2018-Jan-23 02:43N 27°50' W 097°30'0 0.0
2018-Jan-23 02:05N 27°50' W 097°30'3 0.5
2018-Jan-22 20:06N 27°49' W 097°26'0 0.0
2018-Jan-22 19:58N 27°49' W 097°26'0 0.6
2018-Jan-22 19:30N 27°49' W 097°26'1 2.6
2018-Jan-22 18:57N 27°49' W 097°28'2 3.4
2018-Jan-22 18:29N 27°50' W 097°30'0 0.0
2018-Jan-22 18:00N 27°50' W 097°30'0 0.0
2018-Jan-22 17:20N 27°50' W 097°30'0 0.0
2018-Jan-22 16:57N 27°50' W 097°30'0 0.0
2018-Jan-22 16:29N 27°50' W 097°30'0 0.0
2018-Jan-22 16:00N 27°50' W 097°30'0 0.0
2018-Jan-22 15:29N 27°50' W 097°30'0 0.0
2018-Jan-22 15:00N 27°50' W 097°30'0 0.0
2018-Jan-22 14:29N 27°50' W 097°30'0 0.0
2018-Jan-22 14:00N 27°50' W 097°30'0 0.0
2018-Jan-22 13:29N 27°50' W 097°30'0 0.0
2018-Jan-22 13:00N 27°50' W 097°30'0 0.0
2018-Jan-22 12:29N 27°50' W 097°30'0 0.0
2018-Jan-22 12:00N 27°50' W 097°30'0 0.0
2018-Jan-22 11:29N 27°50' W 097°30'  

Dump ship's entire track history